createdAt,value
2022-10-05T00:02:18.619Z,10.35
2022-10-05T00:04:47.458Z,8.68
2022-10-05T00:07:16.880Z,9.60
2022-10-05T00:09:45.652Z,13.95
2022-10-05T00:12:21.151Z,13.30
2022-10-05T00:14:52.782Z,12.90
2022-10-05T00:17:25.562Z,9.55
2022-10-05T00:19:53.511Z,11.57
2022-10-05T00:22:23.124Z,12.70
2022-10-05T00:24:54.878Z,11.40
2022-10-05T00:27:24.858Z,10.27
2022-10-05T00:29:53.713Z,9.40
2022-10-05T00:32:20.682Z,11.95
2022-10-05T00:34:47.762Z,11.90
2022-10-05T00:37:15.000Z,13.20
2022-10-05T00:39:42.542Z,11.18
2022-10-05T00:42:51.479Z,13.73
2022-10-05T00:45:25.158Z,14.13
2022-10-05T00:48:01.340Z,7.97
2022-10-05T00:50:43.747Z,10.43
2022-10-05T00:53:19.867Z,10.65
2022-10-05T00:56:07.213Z,8.80
2022-10-05T00:58:34.183Z,10.25
2022-10-05T01:01:15.251Z,14.30
2022-10-05T01:03:44.943Z,8.60
2022-10-05T01:06:19.296Z,8.60
2022-10-05T01:09:29.528Z,21.63
2022-10-05T01:12:13.856Z,13.27
2022-10-05T01:15:08.435Z,21.02
2022-10-05T01:17:43.728Z,13.05
2022-10-05T01:20:24.736Z,12.35
2022-10-05T01:23:17.618Z,9.77
2022-10-05T01:25:56.409Z,10.00
2022-10-05T01:28:41.990Z,9.45
2022-10-05T01:31:18.227Z,10.27
2022-10-05T01:34:11.462Z,8.20
2022-10-05T01:36:49.098Z,9.13
2022-10-05T01:39:58.342Z,11.10
2022-10-05T01:42:44.815Z,8.85
2022-10-05T01:45:42.893Z,9.95
2022-10-05T01:48:40.631Z,7.55
2022-10-05T01:51:26.152Z,13.82
2022-10-05T01:54:18.054Z,9.32
2022-10-05T01:57:03.327Z,9.88
2022-10-05T01:59:58.894Z,24.95
2022-10-05T02:02:28.938Z,9.45
2022-10-05T02:05:08.394Z,6.10
2022-10-05T02:07:47.879Z,10.40
2022-10-05T02:10:39.182Z,8.35
2022-10-05T02:13:15.132Z,7.47
2022-10-05T02:15:56.647Z,8.52
2022-10-05T02:18:33.914Z,7.35
2022-10-05T02:21:05.405Z,7.60
2022-10-05T02:23:35.487Z,9.45
2022-10-05T02:26:03.443Z,11.38
2022-10-05T02:29:03.051Z,7.80
2022-10-05T02:32:04.920Z,7.43
2022-10-05T02:34:38.288Z,8.70
2022-10-05T02:37:15.276Z,5.07
2022-10-05T02:40:01.480Z,9.40
2022-10-05T02:42:43.862Z,8.43
2022-10-05T02:45:56.523Z,5.68
2022-10-05T02:48:35.650Z,5.75
2022-10-05T02:51:17.923Z,4.55
2022-10-05T02:54:15.362Z,5.53
2022-10-05T02:57:00.999Z,9.55
2022-10-05T02:59:47.700Z,6.75
2022-10-05T03:02:26.323Z,63.72
2022-10-05T03:05:32.567Z,19.33
2022-10-05T03:08:13.168Z,49.40
2022-10-05T03:11:07.917Z,56.38
2022-10-05T03:13:47.012Z,44.03
2022-10-05T03:16:38.142Z,29.48
2022-10-05T03:19:33.180Z,33.67
2022-10-05T03:22:28.472Z,38.25
2022-10-05T03:25:31.074Z,14.20
2022-10-05T03:28:40.020Z,17.10
2022-10-05T03:31:32.666Z,13.57
2022-10-05T03:34:10.262Z,7.82
2022-10-05T03:37:04.494Z,8.98
2022-10-05T03:39:51.391Z,12.18
2022-10-05T03:42:46.828Z,8.82
2022-10-05T03:45:22.928Z,10.05
2022-10-05T03:48:13.919Z,10.93
2022-10-05T03:51:12.641Z,15.55
2022-10-05T03:53:52.935Z,17.60
2022-10-05T03:56:39.577Z,9.32
2022-10-05T03:59:39.395Z,8.23
2022-10-05T04:02:20.733Z,9.07
2022-10-05T04:04:59.689Z,7.18
2022-10-05T04:07:51.236Z,6.20
2022-10-05T04:10:26.092Z,8.73
2022-10-05T04:13:18.626Z,9.02
2022-10-05T04:16:10.435Z,10.02
2022-10-05T04:18:54.159Z,14.63
2022-10-05T04:21:25.047Z,26.58
2022-10-05T04:24:11.686Z,89.15
2022-10-05T04:26:59.659Z,25.17
2022-10-05T04:29:47.026Z,30.25
2022-10-05T04:32:27.237Z,45.75
2022-10-05T04:35:19.224Z,14.07
2022-10-05T04:38:27.737Z,37.10
2022-10-05T04:41:33.060Z,149.40
2022-10-05T04:44:18.932Z,16.05
2022-10-05T04:47:10.687Z,13.77
2022-10-05T04:50:02.639Z,35.83
2022-10-05T04:52:47.992Z,48.33
2022-10-05T04:55:35.872Z,60.63
2022-10-05T04:58:19.876Z,58.28
2022-10-05T05:01:18.308Z,84.78
2022-10-05T05:04:07.289Z,203.30
2022-10-05T05:06:46.630Z,178.93
2022-10-05T05:09:23.105Z,62.20
2022-10-05T05:12:18.873Z,206.60
2022-10-05T05:14:49.033Z,103.38
2022-10-05T05:17:28.298Z,96.25
2022-10-05T05:20:17.120Z,83.70
2022-10-05T05:23:14.319Z,268.67
2022-10-05T05:26:24.184Z,177.77
2022-10-05T05:29:06.581Z,60.70
2022-10-05T05:31:51.868Z,79.47
2022-10-05T05:34:36.737Z,59.72
2022-10-05T05:37:22.324Z,46.67
2022-10-05T05:40:13.940Z,52.03
2022-10-05T05:42:50.540Z,74.97
2022-10-05T05:45:41.343Z,74.50
2022-10-05T05:48:26.601Z,76.07
2022-10-05T05:50:53.654Z,58.85
2022-10-05T05:53:28.184Z,80.93
2022-10-05T05:56:04.364Z,26.50
2022-10-05T05:58:43.255Z,38.05
2022-10-05T06:01:32.324Z,16.73
2022-10-05T06:04:09.907Z,12.47
2022-10-05T06:06:42.760Z,16.35
2022-10-05T06:09:43.190Z,19.35
2022-10-05T06:12:29.886Z,17.42
2022-10-05T06:15:03.485Z,16.98
2022-10-05T06:17:38.958Z,38.03
2022-10-05T06:20:16.555Z,11.77
2022-10-05T06:22:46.081Z,17.98
2022-10-05T06:25:14.288Z,24.20
2022-10-05T06:28:02.931Z,9.60
2022-10-05T06:30:48.427Z,33.17
2022-10-05T06:33:33.931Z,28.67
2022-10-05T06:36:38.366Z,49.50
2022-10-05T06:39:11.928Z,31.70
2022-10-05T06:41:57.726Z,24.88
2022-10-05T06:45:06.631Z,27.98
2022-10-05T06:47:50.410Z,55.13
2022-10-05T06:50:42.344Z,81.40
2022-10-05T06:53:39.129Z,74.22
2022-10-05T06:56:15.178Z,97.50
2022-10-05T06:59:06.773Z,57.67
2022-10-05T07:02:12.726Z,30.17
2022-10-05T07:05:06.263Z,83.32
2022-10-05T07:07:55.597Z,44.30
2022-10-05T07:11:17.185Z,52.03
2022-10-05T07:14:10.811Z,31.90
2022-10-05T07:16:43.607Z,27.92
2022-10-05T07:19:18.862Z,16.92
2022-10-05T07:22:13.793Z,10.48
2022-10-05T07:24:48.885Z,9.15
2022-10-05T07:27:41.545Z,6.68
2022-10-05T07:30:13.942Z,9.88
2022-10-05T07:33:00.572Z,8.10
2022-10-05T07:35:39.581Z,8.32
2022-10-05T07:38:19.577Z,7.75
2022-10-05T07:40:52.906Z,5.93
2022-10-05T07:44:03.331Z,4.53
2022-10-05T07:46:58.244Z,7.13
2022-10-05T07:49:39.593Z,6.50
2022-10-05T07:52:19.514Z,7.10
2022-10-05T07:55:18.729Z,5.78
2022-10-05T07:58:13.813Z,7.30
2022-10-05T08:00:46.956Z,4.20
2022-10-05T08:03:30.243Z,5.32
2022-10-05T08:06:00.964Z,3.88
2022-10-05T08:08:39.989Z,3.78
2022-10-05T08:11:06.904Z,4.75
2022-10-05T08:13:53.990Z,4.47
2022-10-05T08:16:24.365Z,3.80
2022-10-05T08:19:02.280Z,4.78
2022-10-05T08:21:44.924Z,4.28
2022-10-05T08:24:34.089Z,4.28
2022-10-05T08:27:07.888Z,3.80
2022-10-05T08:29:42.179Z,5.78
2022-10-05T08:32:19.967Z,4.00
2022-10-05T08:35:30.952Z,4.43
2022-10-05T08:38:13.933Z,4.60
2022-10-05T08:41:10.999Z,5.93
2022-10-05T08:43:59.223Z,4.18
2022-10-05T08:47:09.779Z,5.55
2022-10-05T08:50:02.940Z,4.35
2022-10-05T08:53:01.423Z,4.85
2022-10-05T08:55:51.692Z,9.43
2022-10-05T08:58:53.895Z,35.60
2022-10-05T09:04:11.934Z,7.20
2022-10-05T09:06:48.630Z,7.45
2022-10-05T09:09:37.959Z,9.75
2022-10-05T09:12:42.941Z,9.25
2022-10-05T09:15:25.854Z,10.68
2022-10-05T09:18:24.049Z,11.88
2022-10-05T09:20:53.089Z,9.27
2022-10-05T09:23:35.948Z,10.98
2022-10-05T09:26:28.582Z,9.82
2022-10-05T09:29:24.379Z,10.77
2022-10-05T09:32:32.584Z,8.00
2022-10-05T09:35:14.844Z,8.90
2022-10-05T09:37:47.972Z,8.07
2022-10-05T09:40:45.957Z,10.80
2022-10-05T09:43:22.876Z,8.43
2022-10-05T09:45:58.964Z,7.60
2022-10-05T09:48:44.372Z,8.48
2022-10-05T09:51:48.223Z,8.77
2022-10-05T09:54:43.257Z,7.15
2022-10-05T09:57:39.775Z,5.50
2022-10-05T10:00:22.905Z,8.70
2022-10-05T10:02:55.839Z,7.20
2022-10-05T10:05:43.769Z,8.13
2022-10-05T10:08:39.601Z,5.97
2022-10-05T10:11:15.579Z,9.25
2022-10-05T10:14:01.650Z,16.10
2022-10-05T10:16:48.590Z,8.65
2022-10-05T10:19:52.996Z,4.47
2022-10-05T10:22:46.214Z,5.07
2022-10-05T10:25:31.900Z,5.82
2022-10-05T10:28:07.866Z,4.80
2022-10-05T10:31:04.669Z,5.47
2022-10-05T10:33:43.751Z,4.70
2022-10-05T10:36:20.654Z,4.15
2022-10-05T10:38:47.560Z,3.40
2022-10-05T10:41:53.418Z,4.93
2022-10-05T10:44:38.440Z,3.20
2022-10-05T10:47:08.443Z,6.30
2022-10-05T10:49:44.565Z,4.80
2022-10-05T10:52:11.560Z,4.85
2022-10-05T10:54:49.641Z,6.90
2022-10-05T10:57:45.865Z,6.32
2022-10-05T11:00:34.319Z,5.88
2022-10-05T11:03:17.159Z,4.53
2022-10-05T11:06:25.854Z,5.13
2022-10-05T11:09:31.683Z,4.40
2022-10-05T11:12:39.329Z,9.70
2022-10-05T11:16:00.836Z,4.97
2022-10-05T11:18:33.977Z,4.35
2022-10-05T11:21:27.360Z,4.68
2022-10-05T11:24:13.008Z,5.38
2022-10-05T11:27:04.605Z,3.85
2022-10-05T11:29:45.078Z,4.78
2022-10-05T11:32:24.154Z,4.28
2022-10-05T11:35:25.668Z,8.07
2022-10-05T11:38:01.788Z,7.72
2022-10-05T11:41:06.405Z,5.93
2022-10-05T11:43:59.570Z,5.93
2022-10-05T11:46:32.501Z,14.63
2022-10-05T11:49:15.217Z,4.28
2022-10-05T11:51:51.710Z,6.22
2022-10-05T11:55:09.962Z,6.18
2022-10-05T11:57:40.420Z,5.85
2022-10-05T12:00:24.608Z,5.30
2022-10-05T12:03:18.342Z,3.40
2022-10-05T12:06:42.806Z,5.05
2022-10-05T12:09:37.215Z,6.07
2022-10-05T12:12:12.308Z,6.80
2022-10-05T12:14:39.228Z,5.85
2022-10-05T12:17:38.426Z,4.90
2022-10-05T12:20:28.730Z,5.45
2022-10-05T12:23:20.250Z,10.15
2022-10-05T12:26:02.472Z,4.05
2022-10-05T12:28:47.425Z,4.57
2022-10-05T12:31:25.655Z,4.82
2022-10-05T12:34:11.131Z,7.70
2022-10-05T12:37:03.613Z,6.13
2022-10-05T12:39:59.547Z,5.28
2022-10-05T12:42:54.559Z,6.45
2022-10-05T12:45:45.252Z,6.53
2022-10-05T12:48:24.101Z,5.53
2022-10-05T12:51:16.767Z,5.53
2022-10-05T12:53:43.741Z,7.22
2022-10-05T12:56:14.734Z,4.60
2022-10-05T12:59:07.456Z,4.53
2022-10-05T13:01:58.836Z,6.32
2022-10-05T13:04:47.134Z,4.30
2022-10-05T13:07:25.795Z,7.88
2022-10-05T13:10:30.303Z,4.90
2022-10-05T13:13:05.559Z,3.42
2022-10-05T13:15:35.671Z,4.68
2022-10-05T13:18:11.948Z,4.75
2022-10-05T13:20:51.291Z,6.32
2022-10-05T13:23:36.178Z,5.28
2022-10-05T13:26:09.620Z,4.03
2022-10-05T13:28:54.284Z,4.82
2022-10-05T13:31:27.629Z,7.22
2022-10-05T13:34:13.235Z,6.63
2022-10-05T13:37:15.829Z,6.50
2022-10-05T13:40:01.896Z,4.57
2022-10-05T13:42:38.179Z,4.93
2022-10-05T13:45:17.153Z,5.45
2022-10-05T13:48:06.088Z,6.05
2022-10-05T13:50:35.311Z,3.17
2022-10-05T13:53:23.658Z,4.40
2022-10-05T13:55:59.843Z,5.03
2022-10-05T13:58:46.379Z,5.25
2022-10-05T14:01:21.003Z,4.85
2022-10-05T14:04:13.926Z,9.18
2022-10-05T14:06:41.353Z,4.50
2022-10-05T14:09:20.565Z,5.60
2022-10-05T14:11:50.721Z,3.47
2022-10-05T14:14:25.980Z,6.63
2022-10-05T14:16:56.530Z,4.03
2022-10-05T14:19:23.492Z,8.23
2022-10-05T14:22:02.184Z,7.15
2022-10-05T14:24:44.507Z,6.28
2022-10-05T14:27:22.512Z,6.47
2022-10-05T14:30:09.292Z,4.47
2022-10-05T14:32:49.313Z,4.55
2022-10-05T14:35:18.788Z,5.47
2022-10-05T14:38:01.876Z,7.10
2022-10-05T14:40:31.857Z,4.68
2022-10-05T14:43:17.077Z,3.22
2022-10-05T14:45:59.474Z,5.43
2022-10-05T14:48:28.171Z,3.15
2022-10-05T14:51:00.403Z,5.25
2022-10-05T14:54:01.230Z,4.13
2022-10-05T14:56:33.486Z,4.03
2022-10-05T14:59:19.174Z,5.75
2022-10-05T15:02:23.680Z,6.00
2022-10-05T15:05:01.333Z,6.97
2022-10-05T15:07:33.718Z,5.20
2022-10-05T15:10:27.272Z,6.32
2022-10-05T15:12:57.566Z,6.60
2022-10-05T15:15:33.648Z,7.65
2022-10-05T15:18:05.902Z,7.68
2022-10-05T15:20:44.778Z,10.07
2022-10-05T15:23:37.697Z,5.68
2022-10-05T15:26:37.041Z,4.47
2022-10-05T15:29:27.597Z,5.68
2022-10-05T15:32:13.256Z,8.57
2022-10-05T15:34:40.161Z,7.30
2022-10-05T15:37:19.216Z,3.97
2022-10-05T15:40:02.198Z,4.40
2022-10-05T15:42:37.689Z,4.65
2022-10-05T15:45:30.376Z,6.55
2022-10-05T15:48:05.764Z,8.15
2022-10-05T15:51:00.113Z,6.07
2022-10-05T15:53:42.220Z,6.30
2022-10-05T15:56:37.243Z,9.15
2022-10-05T15:59:23.515Z,7.50
2022-10-05T16:01:57.501Z,5.88
2022-10-05T16:04:50.363Z,5.38
2022-10-05T16:07:23.443Z,5.97
2022-10-05T16:10:02.027Z,4.43
2022-10-05T16:12:58.728Z,5.93
2022-10-05T16:15:37.104Z,6.35
2022-10-05T16:18:32.329Z,9.10
2022-10-05T16:21:23.918Z,7.00
2022-10-05T16:24:02.937Z,5.38
2022-10-05T16:26:47.194Z,11.88
2022-10-05T16:29:47.096Z,10.60
2022-10-05T16:32:20.536Z,6.50
2022-10-05T16:34:55.809Z,5.53
2022-10-05T16:37:48.690Z,5.53
2022-10-05T16:40:49.467Z,11.27
2022-10-05T16:43:48.522Z,5.50
2022-10-05T16:46:45.472Z,6.60
2022-10-05T16:49:43.357Z,7.10
2022-10-05T16:52:15.744Z,10.07
2022-10-05T16:54:48.334Z,9.68
2022-10-05T16:57:18.095Z,7.95
2022-10-05T17:00:00.637Z,6.47
2022-10-05T17:02:56.477Z,8.93
2022-10-05T17:05:42.318Z,9.30
2022-10-05T17:08:15.535Z,6.32
2022-10-05T17:11:05.559Z,7.47
2022-10-05T17:13:42.401Z,7.22
2022-10-05T17:16:45.238Z,8.70
2022-10-05T17:19:38.694Z,11.88
2022-10-05T17:22:21.289Z,5.55
2022-10-05T17:25:16.264Z,6.72
2022-10-05T17:27:52.307Z,4.93
2022-10-05T17:30:19.345Z,8.23
2022-10-05T17:33:12.558Z,6.10
2022-10-05T17:35:51.850Z,6.25
2022-10-05T17:38:41.008Z,9.25
2022-10-05T17:41:17.224Z,7.15
2022-10-05T17:44:13.648Z,5.45
2022-10-05T17:46:51.960Z,11.85
2022-10-05T17:49:40.355Z,16.08
2022-10-05T17:52:21.717Z,6.18
2022-10-05T17:54:48.829Z,11.50
2022-10-05T17:57:22.101Z,11.70
2022-10-05T17:59:55.106Z,7.75
2022-10-05T18:02:37.045Z,6.00
2022-10-05T18:05:04.279Z,11.73
2022-10-05T18:07:33.066Z,14.75
2022-10-05T18:10:22.233Z,11.05
2022-10-05T18:13:32.554Z,9.82
2022-10-05T18:15:59.557Z,8.15
2022-10-05T18:18:54.500Z,7.55
2022-10-05T18:21:30.787Z,8.70
2022-10-05T18:24:04.365Z,10.43
2022-10-05T18:26:51.080Z,6.78
2022-10-05T18:29:30.105Z,8.55
2022-10-05T18:32:03.987Z,11.98
2022-10-05T18:35:02.282Z,8.15
2022-10-05T18:37:52.235Z,7.60
2022-10-05T18:40:33.296Z,7.68
2022-10-05T18:43:18.106Z,9.50
2022-10-05T18:46:07.368Z,10.90
2022-10-05T18:49:12.798Z,9.30
2022-10-05T18:52:27.357Z,13.18
2022-10-05T18:55:11.337Z,6.75
2022-10-05T18:57:50.534Z,8.40
2022-10-05T19:00:21.254Z,7.82
2022-10-05T19:03:00.722Z,11.50
2022-10-05T19:05:48.070Z,7.00
2022-10-05T19:08:35.188Z,10.65
2022-10-05T19:11:19.018Z,10.82
2022-10-05T19:13:48.661Z,9.52
2022-10-05T19:16:37.678Z,9.82
2022-10-05T19:19:33.617Z,10.07
2022-10-05T19:22:19.780Z,10.70
2022-10-05T19:25:05.272Z,13.30
2022-10-05T19:28:00.075Z,14.70
2022-10-05T19:30:43.354Z,14.48
2022-10-05T19:33:29.740Z,13.05
2022-10-05T19:36:15.661Z,11.68
2022-10-05T19:39:11.148Z,9.35
2022-10-05T19:42:06.659Z,15.50
2022-10-05T19:45:01.119Z,8.70
2022-10-05T19:47:41.233Z,10.70
2022-10-05T19:50:23.536Z,9.90
2022-10-05T19:52:56.431Z,10.35
2022-10-05T19:55:34.501Z,13.07
2022-10-05T19:58:26.330Z,12.02
2022-10-05T20:01:04.617Z,10.18
2022-10-05T20:03:33.541Z,6.57
2022-10-05T20:06:03.259Z,8.85
2022-10-05T20:08:45.094Z,10.98
2022-10-05T20:11:23.047Z,9.25
2022-10-05T20:13:53.055Z,6.88
2022-10-05T20:16:31.024Z,8.15
2022-10-05T20:18:58.197Z,13.32
2022-10-05T20:21:49.081Z,5.95
2022-10-05T20:24:21.119Z,7.38
2022-10-05T20:26:53.386Z,11.68
2022-10-05T20:29:20.410Z,15.10
2022-10-05T20:31:47.435Z,9.77
2022-10-05T20:34:14.405Z,6.63
2022-10-05T20:36:41.445Z,8.40
2022-10-05T20:39:15.966Z,7.07
2022-10-05T20:41:44.643Z,10.40
2022-10-05T20:44:12.772Z,6.78
2022-10-05T20:46:39.790Z,7.55
2022-10-05T20:49:08.580Z,6.80
2022-10-05T20:51:39.906Z,4.93
2022-10-05T20:54:07.632Z,7.22
2022-10-05T20:56:34.677Z,5.38
2022-10-05T20:59:01.704Z,9.93
2022-10-05T21:01:28.961Z,10.00
2022-10-05T21:03:57.531Z,6.65
2022-10-05T21:06:24.486Z,9.48
2022-10-05T21:08:51.780Z,12.85
2022-10-05T21:11:20.204Z,5.53
2022-10-05T21:13:47.216Z,10.18
2022-10-05T21:16:15.719Z,6.35
2022-10-05T21:18:43.933Z,9.40
2022-10-05T21:21:11.037Z,7.32
2022-10-05T21:23:37.970Z,6.05
2022-10-05T21:26:06.178Z,4.13
2022-10-05T21:28:33.594Z,7.18
2022-10-05T21:31:00.652Z,7.95
2022-10-05T21:33:27.873Z,6.78
2022-10-05T21:35:54.949Z,3.72
2022-10-05T21:38:21.964Z,3.72
2022-10-05T21:40:49.010Z,5.32
2022-10-05T21:43:16.032Z,7.13
2022-10-05T21:45:44.052Z,4.75
2022-10-05T21:48:14.381Z,10.68
2022-10-05T21:50:41.924Z,9.85
2022-10-05T21:53:12.895Z,7.65
2022-10-05T21:55:42.375Z,4.90
2022-10-05T21:58:11.293Z,4.45
2022-10-05T22:00:38.478Z,6.45
2022-10-05T22:03:05.487Z,5.75
2022-10-05T22:05:32.513Z,6.00
2022-10-05T22:07:59.575Z,5.35
2022-10-05T22:10:26.559Z,11.52
2022-10-05T22:12:59.433Z,11.80
2022-10-05T22:15:27.838Z,9.65
2022-10-05T22:17:54.864Z,8.05
2022-10-05T22:20:22.080Z,6.47
2022-10-05T22:22:49.075Z,6.97
2022-10-05T22:25:16.142Z,7.18
2022-10-05T22:27:43.345Z,8.70
2022-10-05T22:30:10.820Z,6.57
2022-10-05T22:32:37.796Z,5.15
2022-10-05T22:35:09.202Z,8.02
2022-10-05T22:37:38.534Z,6.95
2022-10-05T22:40:07.040Z,6.25
2022-10-05T22:42:34.712Z,4.25
2022-10-05T22:45:01.834Z,5.90
2022-10-05T22:47:28.835Z,6.75
2022-10-05T22:49:55.803Z,4.63
2022-10-05T22:52:22.847Z,8.32
2022-10-05T22:54:49.833Z,7.10
2022-10-05T22:57:16.984Z,3.92
2022-10-05T22:59:44.199Z,6.20
2022-10-05T23:02:11.247Z,10.00
2022-10-05T23:04:38.269Z,7.90
2022-10-05T23:07:05.304Z,5.82
2022-10-05T23:09:32.444Z,6.40
2022-10-05T23:11:59.413Z,6.97
2022-10-05T23:14:26.430Z,9.38
2022-10-05T23:16:53.492Z,10.52
2022-10-05T23:19:22.504Z,5.85
2022-10-05T23:21:49.504Z,4.72
2022-10-05T23:24:16.516Z,9.10
2022-10-05T23:26:44.593Z,6.18
2022-10-05T23:29:11.604Z,6.50
2022-10-05T23:31:38.556Z,6.80
2022-10-05T23:34:05.526Z,7.63
2022-10-05T23:36:32.575Z,6.03
2022-10-05T23:39:00.021Z,6.18
2022-10-05T23:41:27.006Z,14.10
2022-10-05T23:43:54.082Z,9.40
2022-10-05T23:46:21.232Z,6.85
2022-10-05T23:48:48.555Z,8.93
2022-10-05T23:51:15.799Z,6.18
2022-10-05T23:53:42.885Z,7.15
2022-10-05T23:56:09.919Z,7.72
2022-10-05T23:58:37.011Z,9.93
